Аэропорт: Большое Савино. Пермь

ICAO: USPP

METAR:
2022-12-05 08:30:00
USPP 050830Z 35002MPS 9999 -SN BKN009 OVC023 M08/M11 Q1042 R03/390142 TEMPO -FZRA RMK QFE770
METAR:
2022-12-05 04:56:00
TAF USPP 050456Z 0506/0606 06003G08MPS 6000 -SN BKN013 TEMPO 0506/0515 BKN004 BECMG 0520/0521 18003G08MPS